Pagina principale
METAR-TAF:

METAR-TAF

Aeroporti :

Aeroporto di Bujumbura

Bujumbura, Burundi

latitudine: 03-19S, longitudine: 029-19E, altezza: 782 m

METAR: mancante

Ora: 21:29 (19:29 UTC)

Previsione

Il bollettino è stato emesso 2 ore e 29 minuti fa, alle 17:00 UTC
Previsione valida dal 14 alle 18 UTC al 15 alle 24 UTC
Vento 4 kt da nord
Visibilità 10 km o più
Poco nuvoloso ad un'altezza di 3000 ft
Evoluzione graduale
dal 15 alle 03 UTC al 15 alle 05 UTC
Vento 3 kt da direzioni variabili
Visibilità: 5000 m
foschia
Evoluzione graduale
dal 15 alle 08 UTC al 15 alle 10 UTC
Vento 12 kt da sud con raffiche fino a 25 kt
Visibilità: 7000 m
Poco nuvoloso ad un'altezza di 3500 ft
Evoluzione graduale
dal 15 alle 16 UTC al 15 alle 18 UTC
Vento 5 kt da sud
Visibilità 10 km o più
nessuna nube inferiore a 1500 m e nessun cumulonembo

TAF: HBBA 141700Z 1418/1524 36004KT 9999 FEW030 BECMG 1503/1505 VRB03KT 5000 HZ NSC BECMG 1508/1510 18012G25KT 7000 FEW035 BECMG 1516/1518 18005KT CAVOK

Osservazioni e previsioni meteorologiche di più di 4000 aeroporti (messaggi METAR e TAF).

Le stazioni disponibili sono rappresentate dai dischi gialli e rossi sulla carta.

Puntare il mouse per vedere il nome della stazione.

Clicca sopra per visualizzare le osservazioni e previsioni meteorologiche.

Per cambiare la mappa : fare clic sui pulsanti verdi con una croce nera per ingrandire, il pulsante verde con un trattino per diminuire, o sulla freccia verde per le mappe adiacenti.


METAR-TAF: